FMNM

Amborovy Airport

Madagascar
METAR FMNM 251800Z 12006KT CAVOK 25/20 Q1016 NOSIG
Observed Flight Rules
Sep-25 @ 18:00 UTC (an hour ago) Visual Flight Rules
Wind Visibility Clouds
120° at 6 knots 10,000+ meters
  • Clear skies
Temperatures Readings
Current 25°C / 77°F
Dewpoint 20°C / 68°F
Humidity 74%
Altimeter 30" Hg
Pressure 1016 hPa
Elevation 18
METAR FMNM 251800Z 12006KT CAVOK 25/20 Q1016 NOSIG
Observed Flight Rules
Sep-25 @ 18:00 UTC
(an hour ago)
VFR
Wind Visibility
120° at 6 knots 10,000+ meters
Clouds
  • Clear skies
Temperature Dewpoint
25°C / 77°F 20°C / 68°F
Humidity Altimeter Pressure
74% 30" Hg 1016 hPa